Search for airport 
image banner adimage banner ad
image banner ad

LESOLL - Sollana

Located in , Spain

ICAO - , IATA -

Data provided by Airmate  

General information

Coordinates: N39°16'17" W0°21'50"
Elevation is 20 feet MSL.
 
Rated:
View ratings: [VIEW]


View others Airports in Valencia

Operational data

Open for public use
Current time UTC:
Current local time:
Weather at : LEVC - Valencia/Manises ( 26 km )
METAR: LEVC 062030Z 06004KT 010V080 CAVOK 24/18 Q1004 NOSIG
TAF: TAF LEVC 061700Z 0618/0718 09007KT 9999 FEW040 TX27/0713Z TN16/0705Z BECMG 0618/0620 VRB04KT PROB30 TEMPO 0623/0701 26010KT PROB30 TEMPO 0703/0706 3000 BR BKN008 BECMG 0709/0711 12010KT PROB30 TEMPO 0712/0718 4000 TSRA FEW030CB BECMG 0715/0717 06015G27KT
View NOTAMs / SUP AIP / TFR affecting this airport [VIEW]
Communications frequencies: [VIEW]

Runways:

RWY identifierQFULength (ft)Width (ft)SurfaceLDA (ft)
04164033DIRT
22164033DIRT

Airport contact information

Address: Spain

Satellite view of LESOLL